createdAt,value
2023-01-29T00:02:11.524Z,97815.04
2023-01-29T00:04:39.803Z,97818.64
2023-01-29T00:07:08.636Z,97821.59
2023-01-29T00:09:36.659Z,97828.36
2023-01-29T00:12:04.678Z,97832.88
2023-01-29T00:14:32.831Z,97831.86
2023-01-29T00:17:01.236Z,97836.53
2023-01-29T00:19:29.142Z,97837.63
2023-01-29T00:21:57.180Z,97838.39
2023-01-29T00:24:25.013Z,97838.33
2023-01-29T00:26:52.957Z,97836.77
2023-01-29T00:29:21.991Z,97835.20
2023-01-29T00:31:50.246Z,97837.74
2023-01-29T00:34:18.177Z,97840.67
2023-01-29T00:36:47.327Z,97839.59
2023-01-29T00:39:15.407Z,97838.36
2023-01-29T00:42:01.854Z,97838.32
2023-01-29T00:44:48.454Z,97841.13
2023-01-29T00:47:30.973Z,97838.91
2023-01-29T00:49:59.587Z,97837.55
2023-01-29T00:52:28.709Z,97833.30
2023-01-29T00:54:57.731Z,97832.23
2023-01-29T00:57:27.315Z,97832.55
2023-01-29T00:59:55.552Z,97840.30
2023-01-29T01:02:42.648Z,97843.16
2023-01-29T01:05:18.118Z,97839.73
2023-01-29T01:07:50.785Z,97841.78
2023-01-29T01:10:23.255Z,97839.27
2023-01-29T01:12:51.836Z,97838.83
2023-01-29T01:15:19.986Z,97834.59
2023-01-29T01:17:48.976Z,97832.73
2023-01-29T01:20:17.396Z,97829.90
2023-01-29T01:22:45.483Z,97828.87
2023-01-29T01:25:13.357Z,97826.73
2023-01-29T01:27:41.568Z,97825.48
2023-01-29T01:30:11.272Z,97829.28
2023-01-29T01:32:39.863Z,97821.48
2023-01-29T01:35:09.608Z,97818.52
2023-01-29T01:37:38.651Z,97819.02
2023-01-29T01:40:12.994Z,97817.73
2023-01-29T01:42:41.365Z,97819.23
2023-01-29T01:45:17.608Z,97819.23
2023-01-29T01:47:51.487Z,97818.23
2023-01-29T01:50:22.036Z,97821.43
2023-01-29T01:52:53.167Z,97822.86
2023-01-29T01:55:23.227Z,97827.02
2023-01-29T01:57:53.802Z,97827.59
2023-01-29T02:00:22.230Z,97829.94
2023-01-29T02:03:08.853Z,97830.79
2023-01-29T02:05:56.357Z,97829.61
2023-01-29T02:08:51.132Z,97833.92
2023-01-29T02:11:19.608Z,97836.80
2023-01-29T02:13:53.736Z,97836.18
2023-01-29T02:16:26.395Z,97832.15
2023-01-29T02:18:56.615Z,97828.92
2023-01-29T02:21:46.365Z,97829.94
2023-01-29T02:24:33.147Z,97829.66
2023-01-29T02:27:10.147Z,97827.99
2023-01-29T02:29:41.204Z,97832.61
2023-01-29T02:32:20.617Z,97831.26
2023-01-29T02:35:19.770Z,97832.40
2023-01-29T02:38:06.457Z,97834.34
2023-01-29T02:40:44.148Z,97839.31
2023-01-29T02:43:15.108Z,97834.59
2023-01-29T02:46:01.934Z,97835.77
2023-01-29T02:48:38.868Z,97840.99
2023-01-29T02:51:11.129Z,97845.63
2023-01-29T02:53:50.492Z,97854.23
2023-01-29T02:56:24.839Z,97860.20
2023-01-29T02:58:57.773Z,97865.14
2023-01-29T03:01:55.317Z,97873.41
2023-01-29T03:04:26.967Z,97878.16
2023-01-29T03:06:59.086Z,97875.98
2023-01-29T03:09:31.168Z,97879.21
2023-01-29T03:12:20.142Z,97881.31
2023-01-29T03:15:09.332Z,97879.45
2023-01-29T03:17:44.747Z,97879.73
2023-01-29T03:20:17.043Z,97883.05
2023-01-29T03:22:48.824Z,97888.61
2023-01-29T03:25:36.614Z,97890.96
2023-01-29T03:28:25.216Z,97890.54
2023-01-29T03:31:15.847Z,97891.69
2023-01-29T03:33:50.722Z,97891.62
2023-01-29T03:36:27.128Z,97887.48
2023-01-29T03:38:55.078Z,97885.23
2023-01-29T03:41:22.935Z,97892.95
2023-01-29T03:43:51.103Z,97895.92
2023-01-29T03:46:24.590Z,97900.05
2023-01-29T03:49:08.385Z,97903.20
2023-01-29T03:51:55.728Z,97904.77
2023-01-29T03:54:28.351Z,97905.88
2023-01-29T03:56:59.749Z,97903.36
2023-01-29T03:59:27.955Z,97903.89
2023-01-29T04:02:27.452Z,97903.11
2023-01-29T04:04:57.815Z,97903.85
2023-01-29T04:07:26.657Z,97904.40
2023-01-29T04:10:01.964Z,97903.11
2023-01-29T04:12:36.897Z,97910.33
2023-01-29T04:15:08.308Z,97911.08
2023-01-29T04:17:39.852Z,97910.89
2023-01-29T04:20:13.872Z,97914.04
2023-01-29T04:22:45.012Z,97917.30
2023-01-29T04:25:18.441Z,97911.31
2023-01-29T04:27:47.478Z,97908.91
2023-01-29T04:30:21.116Z,97906.30
2023-01-29T04:32:49.398Z,97901.24
2023-01-29T04:35:24.082Z,97897.20
2023-01-29T04:38:06.420Z,97895.01
2023-01-29T04:40:37.699Z,97896.45
2023-01-29T04:43:05.525Z,97899.75
2023-01-29T04:45:33.551Z,97902.02
2023-01-29T04:48:20.578Z,97904.02
2023-01-29T04:51:03.588Z,97906.66
2023-01-29T04:53:54.958Z,97908.02
2023-01-29T04:56:25.985Z,97913.23
2023-01-29T04:58:57.420Z,97912.94
2023-01-29T05:01:29.831Z,97912.61
2023-01-29T05:03:59.253Z,97909.90
2023-01-29T05:06:27.611Z,97910.23
2023-01-29T05:08:56.846Z,97915.99
2023-01-29T05:11:25.413Z,97923.06
2023-01-29T05:13:53.566Z,97929.69
2023-01-29T05:16:26.783Z,97934.02
2023-01-29T05:18:54.820Z,97937.79
2023-01-29T05:21:23.917Z,97941.27
2023-01-29T05:24:09.397Z,97940.98
2023-01-29T05:26:55.603Z,97945.88
2023-01-29T05:29:23.622Z,97945.72
2023-01-29T05:31:51.546Z,97948.83
2023-01-29T05:34:19.668Z,97948.77
2023-01-29T05:36:47.672Z,97952.16
2023-01-29T05:39:15.501Z,97951.27
2023-01-29T05:41:43.883Z,97949.95
2023-01-29T05:44:11.998Z,97953.42
2023-01-29T05:46:40.216Z,97953.61
2023-01-29T05:49:08.068Z,97953.71
2023-01-29T05:51:36.202Z,97959.94
2023-01-29T05:54:04.722Z,97960.08
2023-01-29T05:56:32.477Z,97962.10
2023-01-29T05:59:00.470Z,97967.01
2023-01-29T06:01:28.335Z,97967.92
2023-01-29T06:03:56.336Z,97964.50
2023-01-29T06:06:24.431Z,97966.42
2023-01-29T06:08:52.446Z,97967.92
2023-01-29T06:11:20.724Z,97969.60
2023-01-29T06:13:48.972Z,97975.69
2023-01-29T06:16:17.075Z,97977.42
2023-01-29T06:18:45.065Z,97977.36
2023-01-29T06:21:13.633Z,97982.83
2023-01-29T06:23:41.700Z,97985.15
2023-01-29T06:26:13.727Z,97986.52
2023-01-29T06:28:41.992Z,97991.09
2023-01-29T06:31:30.393Z,97992.17
2023-01-29T06:33:58.745Z,97995.86
2023-01-29T06:36:26.593Z,97997.35
2023-01-29T06:38:54.484Z,97994.23
2023-01-29T06:41:25.728Z,97990.56
2023-01-29T06:43:53.769Z,97995.05
2023-01-29T06:46:21.697Z,97996.95
2023-01-29T06:48:50.075Z,97994.42
2023-01-29T06:51:18.311Z,97998.70
2023-01-29T06:53:46.911Z,97999.95
2023-01-29T06:56:14.895Z,98002.40
2023-01-29T06:58:43.686Z,98004.73
2023-01-29T07:01:17.545Z,98005.57
2023-01-29T07:03:53.185Z,98004.46
2023-01-29T07:06:21.196Z,97998.09
2023-01-29T07:08:49.098Z,97991.17
2023-01-29T07:11:17.413Z,97995.75
2023-01-29T07:13:45.235Z,97994.00
2023-01-29T07:16:13.196Z,97995.49
2023-01-29T07:18:41.096Z,97991.35
2023-01-29T07:21:09.238Z,97987.86
2023-01-29T07:23:37.563Z,97985.39
2023-01-29T07:26:06.073Z,97987.06
2023-01-29T07:28:38.199Z,97982.75
2023-01-29T07:31:06.683Z,97983.95
2023-01-29T07:33:34.670Z,97983.02
2023-01-29T07:36:02.793Z,97990.10
2023-01-29T07:38:30.796Z,97995.27
2023-01-29T07:40:58.608Z,97999.25
2023-01-29T07:43:26.641Z,98000.84
2023-01-29T07:45:54.663Z,98004.73
2023-01-29T07:48:23.638Z,98004.41
2023-01-29T07:50:59.013Z,98005.21
2023-01-29T07:53:28.041Z,98008.14
2023-01-29T07:55:55.913Z,98009.11
2023-01-29T07:58:23.870Z,98005.16
2023-01-29T08:00:51.734Z,97999.41
2023-01-29T08:03:22.763Z,97998.30
2023-01-29T08:05:50.720Z,98004.36
2023-01-29T08:08:19.444Z,97998.54
2023-01-29T08:10:47.490Z,97988.36
2023-01-29T08:13:15.380Z,97992.11
2023-01-29T08:15:45.153Z,97998.78
2023-01-29T08:18:13.763Z,98004.23
2023-01-29T08:20:41.773Z,98003.52
2023-01-29T08:23:12.705Z,98008.73
2023-01-29T08:25:40.756Z,98006.91
2023-01-29T08:28:09.012Z,98013.02
2023-01-29T08:30:37.073Z,98017.77
2023-01-29T08:33:04.972Z,98020.04
2023-01-29T08:35:32.889Z,98022.05
2023-01-29T08:38:03.589Z,98024.27
2023-01-29T08:40:33.547Z,98024.61
2023-01-29T08:43:03.536Z,98026.30
2023-01-29T08:45:37.055Z,98027.35
2023-01-29T08:48:05.374Z,98023.89
2023-01-29T08:50:34.969Z,98021.77
2023-01-29T08:53:04.095Z,98026.60
2023-01-29T08:55:32.004Z,98033.02
2023-01-29T08:58:00.062Z,98033.42
2023-01-29T09:00:28.199Z,98033.92
2023-01-29T09:02:56.286Z,98033.25
2023-01-29T09:05:24.727Z,98033.61
2023-01-29T09:07:54.207Z,98034.98
2023-01-29T09:10:22.671Z,98036.18
2023-01-29T09:12:50.715Z,98036.36
2023-01-29T09:15:19.172Z,98035.16
2023-01-29T09:17:49.488Z,98033.44
2023-01-29T09:20:18.065Z,98032.10
2023-01-29T09:22:46.528Z,98027.36
2023-01-29T09:25:15.165Z,98029.91
2023-01-29T09:27:43.533Z,98031.51
2023-01-29T09:30:12.857Z,98033.86
2023-01-29T09:32:53.221Z,98027.23
2023-01-29T09:35:22.985Z,98027.11
2023-01-29T09:37:51.009Z,98027.18
2023-01-29T09:40:39.175Z,98026.77
2023-01-29T09:43:22.741Z,98024.52
2023-01-29T09:45:56.352Z,98015.76
2023-01-29T09:48:26.835Z,98008.47
2023-01-29T09:50:57.220Z,98002.60
2023-01-29T09:53:32.691Z,97994.21
2023-01-29T09:56:29.087Z,97991.73
2023-01-29T09:59:00.554Z,97991.87
2023-01-29T10:01:51.286Z,97990.21
2023-01-29T10:04:31.209Z,97990.03
2023-01-29T10:07:17.237Z,97996.27
2023-01-29T10:09:57.666Z,97993.28
2023-01-29T10:12:28.879Z,97991.34
2023-01-29T10:15:06.105Z,97987.79
2023-01-29T10:17:43.387Z,97989.09
2023-01-29T10:20:29.635Z,97990.13
2023-01-29T10:23:18.584Z,97986.17
2023-01-29T10:25:47.504Z,97991.25
2023-01-29T10:28:21.446Z,97996.90
2023-01-29T10:30:50.645Z,97995.02
2023-01-29T10:33:23.903Z,98000.13
2023-01-29T10:35:55.897Z,98001.66
2023-01-29T10:38:44.884Z,98007.34
2023-01-29T10:41:31.182Z,98012.10
2023-01-29T10:43:59.132Z,98010.64
2023-01-29T10:46:45.781Z,98006.23
2023-01-29T10:49:19.739Z,98005.72
2023-01-29T10:51:56.901Z,98003.70
2023-01-29T10:54:40.784Z,98003.71
2023-01-29T10:57:20.793Z,98002.88
2023-01-29T10:59:52.107Z,98000.52
2023-01-29T11:02:22.993Z,97998.27
2023-01-29T11:04:51.618Z,98002.52
2023-01-29T11:07:22.143Z,98006.69
2023-01-29T11:10:09.986Z,98005.66
2023-01-29T11:12:39.014Z,98002.00
2023-01-29T11:15:14.821Z,97998.39
2023-01-29T11:18:01.003Z,97990.88
2023-01-29T11:20:30.116Z,97992.23
2023-01-29T11:22:59.397Z,97991.18
2023-01-29T11:25:29.885Z,97994.25
2023-01-29T11:28:01.941Z,97991.96
2023-01-29T11:30:34.542Z,97990.23
2023-01-29T11:33:05.490Z,97983.35
2023-01-29T11:35:34.080Z,97978.12
2023-01-29T11:38:22.798Z,97980.41
2023-01-29T11:40:50.965Z,97974.87
2023-01-29T11:43:27.571Z,97974.58
2023-01-29T11:45:57.733Z,97970.70
2023-01-29T11:48:30.449Z,97965.52
2023-01-29T11:51:04.863Z,97962.83
2023-01-29T11:53:44.359Z,97962.02
2023-01-29T11:56:29.073Z,97963.55
2023-01-29T11:58:58.099Z,97961.84
2023-01-29T12:01:40.341Z,97961.85
2023-01-29T12:04:24.789Z,97957.30
2023-01-29T12:06:53.785Z,97958.05
2023-01-29T12:09:27.374Z,97958.85
2023-01-29T12:11:55.326Z,97956.67
2023-01-29T12:14:37.025Z,97954.27
2023-01-29T12:17:08.873Z,97957.55
2023-01-29T12:19:39.608Z,97955.05
2023-01-29T12:22:16.882Z,97954.80
2023-01-29T12:24:59.122Z,97953.50
2023-01-29T12:27:46.403Z,97951.19
2023-01-29T12:30:36.648Z,97956.71
2023-01-29T12:33:12.670Z,97955.30
2023-01-29T12:35:47.267Z,97953.78
2023-01-29T12:38:19.030Z,97951.83
2023-01-29T12:40:58.204Z,97951.34
2023-01-29T12:43:37.831Z,97953.02
2023-01-29T12:46:09.799Z,97956.64
2023-01-29T12:48:39.701Z,97957.55
2023-01-29T12:51:09.995Z,97956.95
2023-01-29T12:53:39.944Z,97955.40
2023-01-29T12:56:29.354Z,97959.04
2023-01-29T12:58:59.420Z,97955.88
2023-01-29T13:01:36.908Z,97955.73
2023-01-29T13:04:16.857Z,97954.00
2023-01-29T13:06:55.254Z,97952.86
2023-01-29T13:09:26.946Z,97956.37
2023-01-29T13:11:57.958Z,97958.23
2023-01-29T13:14:31.825Z,97954.44
2023-01-29T13:17:10.375Z,97959.02
2023-01-29T13:19:41.331Z,97964.11
2023-01-29T13:22:22.396Z,97954.59
2023-01-29T13:25:03.561Z,97954.40
2023-01-29T13:27:34.479Z,97955.34
2023-01-29T13:30:03.368Z,97960.22
2023-01-29T13:32:32.694Z,97963.33
2023-01-29T13:35:20.917Z,97965.50
2023-01-29T13:37:53.958Z,97967.77
2023-01-29T13:40:24.852Z,97968.05
2023-01-29T13:42:54.387Z,97968.15
2023-01-29T13:45:35.714Z,97971.79
2023-01-29T13:48:12.732Z,97967.73
2023-01-29T13:50:42.688Z,97971.91
2023-01-29T13:53:21.160Z,97974.10
2023-01-29T13:55:49.122Z,97976.02
2023-01-29T13:58:46.798Z,97974.38
2023-01-29T14:01:14.786Z,97971.46
2023-01-29T14:04:03.622Z,97970.40
2023-01-29T14:06:38.435Z,97967.00
2023-01-29T14:09:26.273Z,97965.80
2023-01-29T14:11:54.411Z,97962.08
2023-01-29T14:14:40.758Z,97964.02
2023-01-29T14:17:08.855Z,97964.52
2023-01-29T14:19:36.863Z,97966.41
2023-01-29T14:22:05.641Z,97968.06
2023-01-29T14:24:33.990Z,97970.05
2023-01-29T14:27:03.595Z,97970.13
2023-01-29T14:29:38.226Z,97966.81
2023-01-29T14:32:07.486Z,97967.91
2023-01-29T14:34:41.699Z,97974.60
2023-01-29T14:37:15.529Z,97978.23
2023-01-29T14:39:44.932Z,97983.80
2023-01-29T14:42:16.001Z,97982.54
2023-01-29T14:44:55.955Z,97985.02
2023-01-29T14:47:32.689Z,97984.73
2023-01-29T14:50:02.126Z,97983.84
2023-01-29T14:52:35.897Z,97984.75
2023-01-29T14:55:05.992Z,97987.70
2023-01-29T14:57:35.010Z,97989.02
2023-01-29T15:00:07.277Z,97987.84
2023-01-29T15:02:41.116Z,97990.59
2023-01-29T15:05:14.286Z,97989.91
2023-01-29T15:07:48.920Z,97993.73
2023-01-29T15:10:22.762Z,97994.38
2023-01-29T15:13:03.122Z,97997.13
2023-01-29T15:15:42.703Z,98001.59
2023-01-29T15:18:16.374Z,98000.66
2023-01-29T15:20:44.700Z,98002.09
2023-01-29T15:23:24.670Z,98003.16
2023-01-29T15:25:54.324Z,98004.91
2023-01-29T15:28:22.503Z,98005.21
2023-01-29T15:30:54.102Z,98005.19
2023-01-29T15:33:23.299Z,98000.27
2023-01-29T15:36:06.319Z,97997.63
2023-01-29T15:38:35.232Z,97997.69
2023-01-29T15:41:14.696Z,97996.52
2023-01-29T15:43:50.011Z,97995.86
2023-01-29T15:46:21.156Z,97997.56
2023-01-29T15:48:49.760Z,98003.20
2023-01-29T15:51:20.239Z,98005.21
2023-01-29T15:53:53.339Z,98008.25
2023-01-29T15:56:41.629Z,98006.23
2023-01-29T15:59:15.300Z,98008.58
2023-01-29T16:01:43.506Z,98007.09
2023-01-29T16:04:15.087Z,98008.98
2023-01-29T16:06:43.877Z,98009.46
2023-01-29T16:09:15.926Z,98010.27
2023-01-29T16:11:44.095Z,98010.27
2023-01-29T16:14:17.559Z,98009.23
2023-01-29T16:16:45.651Z,98007.23
2023-01-29T16:19:14.309Z,97999.71
2023-01-29T16:21:45.898Z,97997.95
2023-01-29T16:24:22.211Z,97990.27
2023-01-29T16:26:51.655Z,97987.63
2023-01-29T16:29:21.882Z,97984.65
2023-01-29T16:31:52.216Z,97987.13
2023-01-29T16:34:20.066Z,97989.40
2023-01-29T16:36:48.777Z,97992.36
2023-01-29T16:39:22.451Z,97994.26
2023-01-29T16:42:17.149Z,97995.58
2023-01-29T16:44:51.282Z,97992.93
2023-01-29T16:47:38.572Z,97993.96
2023-01-29T16:50:18.475Z,97993.83
2023-01-29T16:53:03.789Z,98002.05
2023-01-29T16:55:33.576Z,98003.38
2023-01-29T16:58:04.455Z,98007.64
2023-01-29T17:00:33.375Z,98010.77
2023-01-29T17:03:05.179Z,98010.09
2023-01-29T17:05:37.767Z,98007.52
2023-01-29T17:08:06.683Z,98008.89
2023-01-29T17:10:35.973Z,98008.54
2023-01-29T17:13:05.774Z,98013.60
2023-01-29T17:15:46.130Z,98013.82
2023-01-29T17:18:21.568Z,98012.58
2023-01-29T17:20:50.365Z,98011.77
2023-01-29T17:23:18.615Z,98012.58
2023-01-29T17:25:47.029Z,98009.38
2023-01-29T17:28:16.275Z,98007.33
2023-01-29T17:30:50.614Z,98010.26
2023-01-29T17:33:26.127Z,98010.42
2023-01-29T17:35:54.193Z,98009.13
2023-01-29T17:38:26.453Z,98004.45
2023-01-29T17:40:57.353Z,98002.62
2023-01-29T17:43:26.370Z,98005.16
2023-01-29T17:45:54.892Z,98005.42
2023-01-29T17:48:24.023Z,98009.03
2023-01-29T17:50:53.673Z,98004.92
2023-01-29T17:53:23.615Z,98003.16
2023-01-29T17:55:51.864Z,98003.77
2023-01-29T17:58:24.501Z,98002.49
2023-01-29T18:00:53.151Z,98003.57
2023-01-29T18:03:21.725Z,98007.66
2023-01-29T18:05:50.462Z,98010.57
2023-01-29T18:08:18.306Z,98013.38
2023-01-29T18:10:47.013Z,98019.91
2023-01-29T18:13:15.102Z,98024.00
2023-01-29T18:15:43.121Z,98024.33
2023-01-29T18:18:16.041Z,98026.18
2023-01-29T18:20:45.127Z,98022.38
2023-01-29T18:23:13.436Z,98025.72
2023-01-29T18:25:41.569Z,98025.94
2023-01-29T18:28:13.016Z,98023.67
2023-01-29T18:30:42.350Z,98021.39
2023-01-29T18:33:10.472Z,98024.84
2023-01-29T18:35:38.372Z,98025.12
2023-01-29T18:38:06.347Z,98024.75
2023-01-29T18:40:35.165Z,98028.73
2023-01-29T18:43:04.354Z,98026.27
2023-01-29T18:45:32.451Z,98031.52
2023-01-29T18:48:00.576Z,98034.27
2023-01-29T18:50:28.606Z,98030.96
2023-01-29T18:52:56.529Z,98030.03
2023-01-29T18:55:26.504Z,98032.88
2023-01-29T18:58:26.655Z,98032.85
2023-01-29T19:00:42.749Z,98035.17
2023-01-29T19:03:10.939Z,98033.95
2023-01-29T19:05:39.058Z,98034.34
2023-01-29T19:08:07.040Z,98030.83
2023-01-29T19:10:35.176Z,98026.95
2023-01-29T19:13:05.296Z,98026.23
2023-01-29T19:15:34.125Z,98032.17
2023-01-29T19:18:02.135Z,98030.08
2023-01-29T19:20:30.240Z,98032.86
2023-01-29T19:22:58.375Z,98031.21
2023-01-29T19:25:26.276Z,98033.07
2023-01-29T19:27:54.891Z,98037.93
2023-01-29T19:30:23.098Z,98044.02
2023-01-29T19:32:51.877Z,98041.44
2023-01-29T19:35:20.416Z,98044.27
2023-01-29T19:37:48.436Z,98045.15
2023-01-29T19:40:16.476Z,98045.35
2023-01-29T19:42:44.427Z,98040.86
2023-01-29T19:45:12.558Z,98040.21
2023-01-29T19:47:42.155Z,98039.58
2023-01-29T19:50:10.660Z,98038.02
2023-01-29T19:52:51.081Z,98042.87
2023-01-29T19:55:20.437Z,98047.89
2023-01-29T19:57:48.601Z,98051.61
2023-01-29T20:00:17.605Z,98051.46
2023-01-29T20:02:46.027Z,98055.70
2023-01-29T20:05:17.204Z,98054.87
2023-01-29T20:07:45.532Z,98052.85
2023-01-29T20:10:17.745Z,98050.61
2023-01-29T20:12:46.258Z,98047.11
2023-01-29T20:15:14.571Z,98048.85
2023-01-29T20:17:45.542Z,98050.49
2023-01-29T20:20:14.033Z,98048.29
2023-01-29T20:22:42.107Z,98044.55
2023-01-29T20:25:13.782Z,98045.95
2023-01-29T20:27:41.944Z,98046.43
2023-01-29T20:30:10.274Z,98046.02
2023-01-29T20:32:38.175Z,98045.00
2023-01-29T20:35:06.363Z,98043.14
2023-01-29T20:37:34.251Z,98040.49
2023-01-29T20:40:02.313Z,98045.00
2023-01-29T20:42:30.240Z,98047.36
2023-01-29T20:44:58.207Z,98049.19
2023-01-29T20:47:26.045Z,98050.09
2023-01-29T20:49:53.994Z,98050.79
2023-01-29T20:52:21.873Z,98043.65
2023-01-29T20:54:50.318Z,98045.64
2023-01-29T20:57:18.392Z,98045.70
2023-01-29T20:59:46.348Z,98043.35
2023-01-29T21:02:14.235Z,98037.12
2023-01-29T21:04:44.277Z,98030.48
2023-01-29T21:07:12.442Z,98032.02
2023-01-29T21:09:40.460Z,98030.09
2023-01-29T21:12:08.688Z,98029.71
2023-01-29T21:14:36.650Z,98028.02
2023-01-29T21:17:04.971Z,98029.29
2023-01-29T21:19:33.115Z,98025.67
2023-01-29T21:22:01.019Z,98026.23
2023-01-29T21:24:29.009Z,98030.58
2023-01-29T21:26:57.008Z,98027.59
2023-01-29T21:29:24.801Z,98022.90
2023-01-29T21:31:52.764Z,98021.44
2023-01-29T21:34:20.844Z,98024.98
2023-01-29T21:36:48.624Z,98029.70
2023-01-29T21:39:21.118Z,98032.48
2023-01-29T21:42:07.931Z,98033.84
2023-01-29T21:44:36.609Z,98037.08
2023-01-29T21:47:14.374Z,98036.05
2023-01-29T21:49:43.150Z,98034.00
2023-01-29T21:52:12.375Z,98034.50
2023-01-29T21:54:40.862Z,98030.75
2023-01-29T21:57:12.032Z,98033.10
2023-01-29T21:59:40.184Z,98030.38
2023-01-29T22:02:12.039Z,98027.98
2023-01-29T22:04:40.315Z,98028.88
2023-01-29T22:07:08.820Z,98026.15
2023-01-29T22:09:37.264Z,98028.73
2023-01-29T22:12:07.757Z,98023.68
2023-01-29T22:14:35.812Z,98020.59
2023-01-29T22:17:04.173Z,98017.47
2023-01-29T22:19:32.039Z,98013.73
2023-01-29T22:22:00.154Z,98012.20
2023-01-29T22:24:27.975Z,98010.70
2023-01-29T22:26:55.791Z,98007.45
2023-01-29T22:29:23.992Z,98008.00
2023-01-29T22:31:51.768Z,98008.50
2023-01-29T22:34:19.721Z,98004.67
2023-01-29T22:36:47.968Z,98006.54
2023-01-29T22:39:15.772Z,98008.26
2023-01-29T22:41:43.643Z,98004.84
2023-01-29T22:44:11.760Z,98004.86
2023-01-29T22:46:39.888Z,98002.20
2023-01-29T22:49:07.750Z,97996.98
2023-01-29T22:51:35.708Z,97994.16
2023-01-29T22:54:03.546Z,97990.55
2023-01-29T22:56:31.406Z,97988.19
2023-01-29T22:59:00.297Z,97987.45
2023-01-29T23:01:29.919Z,97991.75
2023-01-29T23:03:58.010Z,97992.77
2023-01-29T23:06:26.055Z,97998.99
2023-01-29T23:08:54.022Z,98003.48
2023-01-29T23:11:23.619Z,98006.94
2023-01-29T23:13:53.017Z,98011.32
2023-01-29T23:16:26.996Z,98012.63
2023-01-29T23:18:56.597Z,98015.77
2023-01-29T23:21:25.281Z,98016.61
2023-01-29T23:23:55.329Z,98012.04
2023-01-29T23:26:42.001Z,98010.60
2023-01-29T23:29:10.197Z,98010.23
2023-01-29T23:31:38.966Z,98010.27
2023-01-29T23:34:07.018Z,98007.27
2023-01-29T23:36:35.020Z,98008.27
2023-01-29T23:39:03.053Z,98008.52
2023-01-29T23:41:30.937Z,98009.41
2023-01-29T23:43:58.910Z,98012.38
2023-01-29T23:46:26.800Z,98011.07
2023-01-29T23:48:54.845Z,98008.80
2023-01-29T23:51:22.738Z,98008.81
2023-01-29T23:53:50.826Z,98004.27
2023-01-29T23:56:18.879Z,98002.70
2023-01-29T23:58:46.842Z,97994.53
